createdAt,value
2018-06-29T00:00:24.593Z,96975.64
2018-06-29T00:02:54.109Z,96977.94
2018-06-29T00:05:23.885Z,96975.47
2018-06-29T00:07:53.283Z,96971.98
2018-06-29T00:10:26.256Z,96972.48
2018-06-29T00:12:56.643Z,96972.41
2018-06-29T00:15:26.197Z,96965.70
2018-06-29T00:17:55.759Z,96958.18
2018-06-29T00:20:25.258Z,96960.54
2018-06-29T00:22:54.937Z,96956.95
2018-06-29T00:25:24.452Z,96953.09
2018-06-29T00:27:54.528Z,96955.72
2018-06-29T00:30:24.031Z,96952.47
2018-06-29T00:32:53.651Z,96956.00
2018-06-29T00:35:23.152Z,96951.64
2018-06-29T00:37:52.570Z,96953.37
2018-06-29T00:40:22.032Z,96948.38
2018-06-29T00:42:51.510Z,96943.48
2018-06-29T00:45:20.890Z,96946.81
2018-06-29T00:47:50.647Z,96934.22
2018-06-29T00:50:20.189Z,96939.86
2018-06-29T00:52:49.856Z,96939.88
2018-06-29T00:55:19.402Z,96935.66
2018-06-29T00:57:48.913Z,96939.28
2018-06-29T01:00:18.811Z,96940.88
2018-06-29T01:02:48.603Z,96937.95
2018-06-29T01:05:18.313Z,96933.94
2018-06-29T01:07:47.835Z,96935.92
2018-06-29T01:10:17.225Z,96938.98
2018-06-29T01:12:46.648Z,96935.86
2018-06-29T01:15:16.099Z,96932.69
2018-06-29T01:17:45.571Z,96923.54
2018-06-29T01:20:15.068Z,96918.77
2018-06-29T01:22:44.743Z,96923.63
2018-06-29T01:25:14.163Z,96921.41
2018-06-29T01:27:43.611Z,96919.05
2018-06-29T01:30:13.127Z,96916.06
2018-06-29T01:32:42.640Z,96916.70
2018-06-29T01:35:12.249Z,96919.06
2018-06-29T01:37:41.701Z,96919.41
2018-06-29T01:40:11.150Z,96911.85
2018-06-29T01:42:40.588Z,96917.61
2018-06-29T01:45:10.033Z,96916.78
2018-06-29T01:47:39.882Z,96914.63
2018-06-29T01:50:09.390Z,96907.14
2018-06-29T01:52:38.991Z,96911.44
2018-06-29T01:55:09.239Z,96908.91
2018-06-29T01:57:39.028Z,96907.86
2018-06-29T02:00:08.580Z,96907.72
2018-06-29T02:02:38.095Z,96898.72
2018-06-29T02:05:07.636Z,96899.56
2018-06-29T02:07:37.303Z,96902.47
2018-06-29T02:10:07.151Z,96900.61
2018-06-29T02:12:37.159Z,96899.30
2018-06-29T02:15:07.142Z,96899.56
2018-06-29T02:17:37.427Z,96901.98
2018-06-29T02:20:07.154Z,96897.90
2018-06-29T02:22:36.990Z,96898.66
2018-06-29T02:25:06.574Z,96898.72
2018-06-29T02:27:36.309Z,96899.16
2018-06-29T02:30:06.309Z,96897.08
2018-06-29T02:32:35.878Z,96891.05
2018-06-29T02:35:05.553Z,96887.33
2018-06-29T02:37:35.604Z,96886.02
2018-06-29T02:40:05.838Z,96880.91
2018-06-29T02:42:35.473Z,96875.83
2018-06-29T02:45:05.129Z,96872.03
2018-06-29T02:47:34.663Z,96869.90
2018-06-29T02:50:04.408Z,96864.02
2018-06-29T02:52:34.013Z,96865.46
2018-06-29T02:55:03.766Z,96856.67
2018-06-29T02:57:33.653Z,96847.02
2018-06-29T03:00:03.141Z,96835.33
2018-06-29T03:02:32.579Z,96834.27
2018-06-29T03:05:02.010Z,96831.37
2018-06-29T03:07:31.450Z,96828.32
2018-06-29T03:10:00.983Z,96823.52
2018-06-29T03:12:30.349Z,96820.88
2018-06-29T03:14:59.872Z,96825.04
2018-06-29T03:17:29.259Z,96821.70
2018-06-29T03:19:58.776Z,96827.39
2018-06-29T03:22:28.093Z,96817.02
2018-06-29T03:24:57.585Z,96811.33
2018-06-29T03:27:27.106Z,96813.11
2018-06-29T03:29:56.725Z,96810.02
2018-06-29T03:32:26.182Z,96807.04
2018-06-29T03:34:55.873Z,96801.28
2018-06-29T03:37:25.292Z,96800.08
2018-06-29T03:39:55.135Z,96808.11
2018-06-29T03:42:24.769Z,96803.38
2018-06-29T03:44:54.419Z,96799.65
2018-06-29T03:47:24.107Z,96792.68
2018-06-29T03:49:53.709Z,96791.33
2018-06-29T03:52:23.114Z,96798.08
2018-06-29T03:54:52.748Z,96798.65
2018-06-29T03:57:22.419Z,96789.09
2018-06-29T03:59:52.011Z,96780.77
2018-06-29T04:02:21.482Z,96783.67
2018-06-29T04:04:51.053Z,96781.74
2018-06-29T04:07:20.575Z,96784.17
2018-06-29T04:09:49.988Z,96778.09
2018-06-29T04:12:19.544Z,96773.20
2018-06-29T04:14:49.223Z,96774.73
2018-06-29T04:17:18.790Z,96777.19
2018-06-29T04:19:48.907Z,96778.56
2018-06-29T04:22:18.461Z,96777.75
2018-06-29T04:24:47.945Z,96778.70
2018-06-29T04:27:17.490Z,96780.70
2018-06-29T04:29:47.446Z,96778.92
2018-06-29T04:32:16.915Z,96785.20
2018-06-29T04:34:46.344Z,96786.02
2018-06-29T04:37:16.030Z,96782.89
2018-06-29T04:39:45.573Z,96777.05
2018-06-29T04:42:15.724Z,96780.27
2018-06-29T04:44:45.224Z,96785.09
2018-06-29T04:47:14.665Z,96785.44
2018-06-29T04:49:44.557Z,96779.53
2018-06-29T04:52:14.037Z,96785.84
2018-06-29T04:54:43.692Z,96793.80
2018-06-29T04:57:13.082Z,96794.13
2018-06-29T04:59:42.720Z,96795.84
2018-06-29T05:02:12.419Z,96801.29
2018-06-29T05:04:42.180Z,96801.14
2018-06-29T05:07:11.673Z,96810.00
2018-06-29T05:09:41.243Z,96814.37
2018-06-29T05:12:10.845Z,96817.47
2018-06-29T05:14:40.602Z,96806.84
2018-06-29T05:17:10.024Z,96817.14
2018-06-29T05:19:39.822Z,96815.54
2018-06-29T05:22:09.287Z,96823.55
2018-06-29T05:24:38.782Z,96821.67
2018-06-29T05:27:08.276Z,96820.19
2018-06-29T05:29:37.934Z,96822.32
2018-06-29T05:32:07.397Z,96820.13
2018-06-29T05:34:37.082Z,96821.77
2018-06-29T05:37:06.734Z,96823.23
2018-06-29T05:39:36.436Z,96820.95
2018-06-29T05:42:06.041Z,96825.57
2018-06-29T05:44:35.751Z,96831.86
2018-06-29T05:47:05.938Z,96828.27
2018-06-29T05:49:35.715Z,96824.20
2018-06-29T05:52:05.376Z,96830.86
2018-06-29T05:54:34.992Z,96828.95
2018-06-29T05:57:04.649Z,96825.94
2018-06-29T05:59:34.377Z,96829.13
2018-06-29T06:02:04.170Z,96826.48
2018-06-29T06:04:33.905Z,96831.56
2018-06-29T06:07:03.643Z,96826.48
2018-06-29T06:09:33.726Z,96825.17
2018-06-29T06:12:03.284Z,96828.48
2018-06-29T06:14:32.889Z,96831.69
2018-06-29T06:17:02.499Z,96835.85
2018-06-29T06:19:42.882Z,96832.87
2018-06-29T06:22:12.606Z,96832.28
2018-06-29T06:24:42.190Z,96829.49
2018-06-29T06:27:11.798Z,96833.36
2018-06-29T06:29:41.420Z,96842.80
2018-06-29T06:32:11.000Z,96844.98
2018-06-29T06:34:40.935Z,96848.47
2018-06-29T06:37:10.980Z,96853.97
2018-06-29T06:39:40.750Z,96855.84
2018-06-29T06:42:10.250Z,96857.47
2018-06-29T06:44:39.970Z,96848.42
2018-06-29T06:47:09.463Z,96847.16
2018-06-29T06:49:39.247Z,96845.34
2018-06-29T06:52:08.914Z,96845.22
2018-06-29T06:54:38.545Z,96848.72
2018-06-29T06:57:08.063Z,96850.03
2018-06-29T06:59:37.877Z,96846.53
2018-06-29T07:02:07.991Z,96842.58
2018-06-29T07:04:37.709Z,96842.08
2018-06-29T07:07:07.237Z,96844.17
2018-06-29T07:09:37.098Z,96847.55
2018-06-29T07:12:06.598Z,96841.81
2018-06-29T07:14:36.170Z,96844.95
2018-06-29T07:17:05.891Z,96845.70
2018-06-29T07:19:35.812Z,96843.33
2018-06-29T07:22:05.561Z,96847.08
2018-06-29T07:24:35.527Z,96840.95
2018-06-29T07:27:05.229Z,96845.14
2018-06-29T07:29:34.972Z,96851.81
2018-06-29T07:32:04.850Z,96851.59
2018-06-29T07:34:34.525Z,96855.20
2018-06-29T07:37:04.239Z,96850.70
2018-06-29T07:39:33.703Z,96856.22
2018-06-29T07:42:03.174Z,96853.73
2018-06-29T07:44:33.006Z,96857.19
2018-06-29T07:47:02.842Z,96853.11
2018-06-29T07:49:32.803Z,96857.50
2018-06-29T07:52:02.625Z,96854.58
2018-06-29T07:54:32.455Z,96857.94
2018-06-29T07:57:02.059Z,96854.00
2018-06-29T07:59:31.651Z,96847.41
2018-06-29T08:02:01.281Z,96847.75
2018-06-29T08:04:30.799Z,96855.73
2018-06-29T08:07:00.360Z,96844.66
2018-06-29T08:09:30.245Z,96846.32
2018-06-29T08:11:59.952Z,96846.00
2018-06-29T08:14:30.692Z,96851.15
2018-06-29T08:17:00.420Z,96844.54
2018-06-29T08:19:31.186Z,96841.89
2018-06-29T08:22:00.908Z,96839.77
2018-06-29T08:24:32.681Z,96844.04
2018-06-29T08:27:02.334Z,96838.10
2018-06-29T08:29:33.418Z,96839.77
2018-06-29T08:32:03.159Z,96838.94
2018-06-29T08:34:32.760Z,96837.43
2018-06-29T08:37:02.687Z,96833.47
2018-06-29T08:39:32.264Z,96837.78
2018-06-29T08:42:01.866Z,96838.26
2018-06-29T08:44:31.480Z,96838.28
2018-06-29T08:47:01.150Z,96829.66
2018-06-29T08:49:30.815Z,96827.84
2018-06-29T08:52:00.616Z,96832.80
2018-06-29T08:54:30.374Z,96828.81
2018-06-29T08:57:00.076Z,96828.46
2018-06-29T08:59:30.032Z,96822.66
2018-06-29T09:01:59.732Z,96822.61
2018-06-29T09:04:29.379Z,96816.53
2018-06-29T09:06:59.142Z,96819.78
2018-06-29T09:09:28.920Z,96820.11
2018-06-29T09:11:59.018Z,96818.05
2018-06-29T09:14:28.749Z,96818.22
2018-06-29T09:16:58.525Z,96816.13
2018-06-29T09:19:28.035Z,96808.00
2018-06-29T09:21:57.724Z,96805.18
2018-06-29T09:24:27.508Z,96800.52
2018-06-29T09:26:57.244Z,96800.47
2018-06-29T09:29:27.085Z,96798.63
2018-06-29T09:31:56.814Z,96794.20
2018-06-29T09:34:26.525Z,96795.20
2018-06-29T09:36:56.043Z,96796.97
2018-06-29T09:39:25.477Z,96795.26
2018-06-29T09:41:55.185Z,96795.02
2018-06-29T09:44:24.919Z,96788.22
2018-06-29T09:46:54.529Z,96787.23
2018-06-29T09:49:24.113Z,96787.14
2018-06-29T09:51:53.869Z,96789.34
2018-06-29T09:54:23.349Z,96776.40
2018-06-29T09:56:53.157Z,96771.89
2018-06-29T09:59:22.785Z,96768.55
2018-06-29T10:01:52.541Z,96770.39
2018-06-29T10:04:22.024Z,96766.58
2018-06-29T10:06:51.707Z,96766.86
2018-06-29T10:09:21.530Z,96770.52
2018-06-29T10:11:52.009Z,96770.66
2018-06-29T10:14:21.717Z,96753.92
2018-06-29T10:16:51.477Z,96757.99
2018-06-29T10:19:21.088Z,96758.91
2018-06-29T10:21:50.845Z,96762.23
2018-06-29T10:24:20.650Z,96762.80
2018-06-29T10:26:50.251Z,96749.58
2018-06-29T10:29:19.905Z,96756.84
2018-06-29T10:31:49.751Z,96755.95
2018-06-29T10:34:19.560Z,96755.33
2018-06-29T10:36:49.602Z,96751.23
2018-06-29T10:39:19.216Z,96744.13
2018-06-29T10:41:48.899Z,96749.45
2018-06-29T10:44:18.534Z,96749.56
2018-06-29T10:46:48.314Z,96744.56
2018-06-29T10:49:17.980Z,96749.21
2018-06-29T10:51:47.801Z,96736.79
2018-06-29T10:54:17.536Z,96738.71
2018-06-29T10:56:47.349Z,96739.77
2018-06-29T10:59:17.405Z,96739.39
2018-06-29T11:01:47.469Z,96733.75
2018-06-29T11:04:16.901Z,96739.37
2018-06-29T11:06:46.676Z,96731.48
2018-06-29T11:09:16.096Z,96736.02
2018-06-29T11:11:45.608Z,96729.06
2018-06-29T11:14:15.171Z,96733.76
2018-06-29T11:16:45.002Z,96735.49
2018-06-29T11:19:14.458Z,96728.00
2018-06-29T11:21:44.408Z,96724.13
2018-06-29T11:24:14.018Z,96728.73
2018-06-29T11:26:43.782Z,96740.54
2018-06-29T11:29:13.397Z,96740.14
2018-06-29T11:31:43.157Z,96734.68
2018-06-29T11:34:12.823Z,96737.34
2018-06-29T11:36:42.423Z,96734.66
2018-06-29T11:39:14.361Z,96734.45
2018-06-29T11:41:44.586Z,96744.13
2018-06-29T11:44:14.506Z,96746.87
2018-06-29T11:46:44.106Z,96753.75
2018-06-29T11:49:13.898Z,96748.92
2018-06-29T11:51:43.770Z,96754.67
2018-06-29T11:54:13.278Z,96752.72
2018-06-29T11:56:43.022Z,96755.58
2018-06-29T11:59:12.609Z,96762.44
2018-06-29T12:01:42.160Z,96756.41
2018-06-29T12:04:11.776Z,96769.25
2018-06-29T12:06:41.712Z,96765.23
2018-06-29T12:09:12.911Z,96770.84
2018-06-29T12:11:43.140Z,96770.06
2018-06-29T12:14:12.748Z,96774.05
2018-06-29T12:16:42.424Z,96775.20
2018-06-29T12:19:12.065Z,96776.63
2018-06-29T12:21:41.912Z,96778.81
2018-06-29T12:24:11.882Z,96779.53
2018-06-29T12:26:41.554Z,96789.72
2018-06-29T12:29:11.055Z,96786.75
2018-06-29T12:31:40.674Z,96781.24
2018-06-29T12:34:10.176Z,96783.79
2018-06-29T12:36:39.951Z,96782.83
2018-06-29T12:39:09.998Z,96781.73
2018-06-29T12:41:40.591Z,96785.21
2018-06-29T12:44:10.527Z,96794.56
2018-06-29T12:46:39.989Z,96787.41
2018-06-29T12:49:09.751Z,96789.36
2018-06-29T12:51:39.481Z,96795.49
2018-06-29T12:54:08.972Z,96793.30
2018-06-29T12:56:38.569Z,96791.86
2018-06-29T12:59:08.100Z,96784.89
2018-06-29T13:01:37.592Z,96791.31
2018-06-29T13:04:07.190Z,96793.75
2018-06-29T13:06:36.716Z,96786.14
2018-06-29T13:09:10.683Z,96784.13
2018-06-29T13:11:40.434Z,96782.87
2018-06-29T13:14:09.873Z,96781.42
2018-06-29T13:16:39.335Z,96783.24
2018-06-29T13:19:10.071Z,96777.05
2018-06-29T13:21:39.816Z,96778.84
2018-06-29T13:24:09.241Z,96779.86
2018-06-29T13:26:38.716Z,96777.70
2018-06-29T13:29:08.145Z,96777.59
2018-06-29T13:31:37.684Z,96779.66
2018-06-29T13:34:07.256Z,96774.79
2018-06-29T13:36:36.832Z,96774.06
2018-06-29T13:39:09.875Z,96770.97
2018-06-29T13:41:39.783Z,96771.47
2018-06-29T13:44:09.349Z,96770.81
2018-06-29T13:46:38.996Z,96770.70
2018-06-29T13:49:08.553Z,96771.75
2018-06-29T13:51:38.240Z,96775.78
2018-06-29T13:54:07.727Z,96777.20
2018-06-29T13:56:37.232Z,96775.37
2018-06-29T13:59:06.835Z,96776.92
2018-06-29T14:01:36.377Z,96786.58
2018-06-29T14:04:06.187Z,96776.52
2018-06-29T14:06:35.776Z,96780.20
2018-06-29T14:09:07.061Z,96779.58
2018-06-29T14:11:36.657Z,96781.39
2018-06-29T14:14:06.191Z,96789.00
2018-06-29T14:16:35.996Z,96783.80
2018-06-29T14:19:05.738Z,96791.62
2018-06-29T14:21:35.435Z,96796.83
2018-06-29T14:24:04.923Z,96805.36
2018-06-29T14:26:34.505Z,96792.80
2018-06-29T14:29:04.021Z,96798.02
2018-06-29T14:31:33.719Z,96795.23
2018-06-29T14:34:03.158Z,96804.42
2018-06-29T14:36:32.647Z,96796.70
2018-06-29T14:39:02.362Z,96804.01
2018-06-29T14:41:32.592Z,96795.37
2018-06-29T14:44:02.180Z,96790.02
2018-06-29T14:46:32.966Z,96793.92
2018-06-29T14:49:02.344Z,96786.35
2018-06-29T14:51:33.450Z,96796.34
2018-06-29T14:54:03.133Z,96789.05
2018-06-29T14:56:33.674Z,96786.14
2018-06-29T14:59:03.274Z,96790.00
2018-06-29T15:01:32.850Z,96794.94
2018-06-29T15:04:02.464Z,96800.27
2018-06-29T15:06:31.888Z,96793.89
2018-06-29T15:09:01.402Z,96789.53
2018-06-29T15:11:30.770Z,96793.16
2018-06-29T15:14:00.449Z,96789.80
2018-06-29T15:16:30.023Z,96778.66
2018-06-29T15:18:59.799Z,96785.37
2018-06-29T15:21:29.478Z,96787.90
2018-06-29T15:23:59.153Z,96780.11
2018-06-29T15:26:28.839Z,96770.64
2018-06-29T15:28:58.559Z,96761.02
2018-06-29T15:31:28.010Z,96764.34
2018-06-29T15:33:57.859Z,96772.08
2018-06-29T15:36:27.353Z,96768.15
2018-06-29T15:38:56.956Z,96764.06
2018-06-29T15:41:26.664Z,96770.93
2018-06-29T15:43:56.290Z,96769.28
2018-06-29T15:46:25.691Z,96759.56
2018-06-29T15:48:55.300Z,96768.20
2018-06-29T15:51:24.675Z,96770.16
2018-06-29T15:53:54.149Z,96769.30
2018-06-29T15:56:23.659Z,96766.84
2018-06-29T15:58:53.409Z,96766.14
2018-06-29T16:01:22.856Z,96770.06
2018-06-29T16:03:52.445Z,96772.00
2018-06-29T16:06:22.111Z,96761.27
2018-06-29T16:08:51.763Z,96773.98
2018-06-29T16:11:21.228Z,96770.37
2018-06-29T16:13:51.013Z,96766.64
2018-06-29T16:16:20.407Z,96766.32
2018-06-29T16:18:49.858Z,96769.06
2018-06-29T16:21:19.301Z,96774.71
2018-06-29T16:23:49.483Z,96784.94
2018-06-29T16:26:18.854Z,96776.63
2018-06-29T16:28:51.152Z,96784.88
2018-06-29T16:31:20.762Z,96780.98
2018-06-29T16:33:50.670Z,96782.52
2018-06-29T16:36:20.511Z,96783.67
2018-06-29T16:38:50.082Z,96787.41
2018-06-29T16:41:19.614Z,96784.73
2018-06-29T16:43:49.381Z,96787.70
2018-06-29T16:46:18.842Z,96794.53
2018-06-29T16:48:48.423Z,96795.59
2018-06-29T16:51:18.034Z,96792.67
2018-06-29T16:53:47.774Z,96787.61
2018-06-29T16:56:17.212Z,96788.80
2018-06-29T16:58:46.581Z,96794.42
2018-06-29T17:01:16.147Z,96795.03
2018-06-29T17:03:45.847Z,96801.28
2018-06-29T17:06:15.710Z,96806.57
2018-06-29T17:08:45.348Z,96813.83
2018-06-29T17:11:14.768Z,96812.63
2018-06-29T17:13:47.764Z,96811.14
2018-06-29T17:16:17.448Z,96821.20
2018-06-29T17:18:47.048Z,96819.20
2018-06-29T17:21:16.407Z,96818.73
2018-06-29T17:23:46.016Z,96820.63
2018-06-29T17:26:15.364Z,96815.46
2018-06-29T17:28:45.007Z,96812.38
2018-06-29T17:31:14.503Z,96816.22
2018-06-29T17:33:44.110Z,96821.25
2018-06-29T17:36:13.704Z,96828.00
2018-06-29T17:38:56.667Z,96825.09
2018-06-29T17:41:26.326Z,96827.45
2018-06-29T17:44:04.425Z,96830.98
2018-06-29T17:46:34.145Z,96837.02
2018-06-29T17:49:03.772Z,96832.22
2018-06-29T17:51:33.631Z,96834.63
2018-06-29T17:54:05.716Z,96830.69
2018-06-29T17:56:36.118Z,96833.64
2018-06-29T17:59:06.497Z,96838.73
2018-06-29T18:01:36.596Z,96838.83
2018-06-29T18:04:06.650Z,96841.30
2018-06-29T18:06:37.410Z,96839.58
2018-06-29T18:09:09.820Z,96846.13
2018-06-29T18:11:40.856Z,96842.94
2018-06-29T18:14:13.792Z,96844.48
2018-06-29T18:16:43.480Z,96846.73
2018-06-29T18:19:13.878Z,96851.53
2018-06-29T18:21:43.889Z,96849.30
2018-06-29T18:24:13.411Z,96853.39
2018-06-29T18:26:43.777Z,96861.78
2018-06-29T18:29:13.213Z,96863.80
2018-06-29T18:31:42.854Z,96870.45
2018-06-29T18:34:12.417Z,96867.11
2018-06-29T18:36:43.120Z,96876.31
2018-06-29T18:39:15.707Z,96882.34
2018-06-29T18:41:46.933Z,96884.63
2018-06-29T18:44:16.432Z,96877.45
2018-06-29T18:46:48.035Z,96879.09
2018-06-29T18:49:17.832Z,96891.13
2018-06-29T18:51:50.138Z,96894.20
2018-06-29T18:54:20.087Z,96892.25
2018-06-29T18:56:50.244Z,96895.20
2018-06-29T18:59:19.698Z,96899.41
2018-06-29T19:01:49.599Z,96902.75
2018-06-29T19:04:20.161Z,96908.73
2018-06-29T19:06:49.615Z,96906.98
2018-06-29T19:09:19.775Z,96905.31
2018-06-29T19:11:49.572Z,96914.97
2018-06-29T19:14:22.169Z,96921.80
2018-06-29T19:16:52.488Z,96923.78
2018-06-29T19:19:28.816Z,96926.62
2018-06-29T19:21:59.344Z,96921.52
2018-06-29T19:24:28.724Z,96926.14
2018-06-29T19:26:58.650Z,96928.63
2018-06-29T19:29:29.249Z,96929.97
2018-06-29T19:31:59.389Z,96939.09
2018-06-29T19:34:28.927Z,96933.66
2018-06-29T19:36:59.227Z,96934.95
2018-06-29T19:39:30.437Z,96934.48
2018-06-29T19:42:04.009Z,96937.66
2018-06-29T19:44:33.489Z,96941.42
2018-06-29T19:47:03.029Z,96940.45
2018-06-29T19:49:37.250Z,96949.91
2018-06-29T19:52:08.347Z,96949.73
2018-06-29T19:54:37.885Z,96953.05
2018-06-29T19:57:07.929Z,96955.71
2018-06-29T19:59:37.769Z,96952.73
2018-06-29T20:02:08.794Z,96965.63
2018-06-29T20:04:38.616Z,96963.97
2018-06-29T20:07:08.885Z,96963.98
2018-06-29T20:09:38.313Z,96967.76
2018-06-29T20:12:08.952Z,96968.23
2018-06-29T20:14:38.955Z,96974.52
2018-06-29T20:17:09.192Z,96980.31
2018-06-29T20:19:38.827Z,96981.14
2018-06-29T20:22:09.633Z,96984.45
2018-06-29T20:24:39.922Z,96994.36
2018-06-29T20:27:10.416Z,96998.50
2018-06-29T20:29:40.093Z,97000.98
2018-06-29T20:32:09.620Z,97004.59
2018-06-29T20:34:38.988Z,97000.96
2018-06-29T20:37:08.712Z,97006.25
2018-06-29T20:39:38.174Z,97012.00
2018-06-29T20:42:08.360Z,97008.67
2018-06-29T20:44:37.742Z,97008.16
2018-06-29T20:47:07.159Z,97008.83
2018-06-29T20:49:36.671Z,97007.98
2018-06-29T20:52:06.372Z,97008.33
2018-06-29T20:54:36.447Z,97015.09
2018-06-29T20:57:06.183Z,97009.80
2018-06-29T20:59:36.061Z,97011.80
2018-06-29T21:02:05.825Z,97013.55
2018-06-29T21:04:35.510Z,97022.31
2018-06-29T21:07:05.242Z,97023.47
2018-06-29T21:09:34.859Z,97020.83
2018-06-29T21:12:04.447Z,97020.64
2018-06-29T21:14:33.926Z,97021.92
2018-06-29T21:17:03.418Z,97025.54
2018-06-29T21:19:32.892Z,97027.33
2018-06-29T21:22:02.669Z,97027.02
2018-06-29T21:24:32.270Z,97026.20
2018-06-29T21:27:02.025Z,97025.84
2018-06-29T21:29:31.628Z,97022.98
2018-06-29T21:32:01.203Z,97026.44
2018-06-29T21:34:30.551Z,97026.28
2018-06-29T21:37:00.123Z,97024.45
2018-06-29T21:39:29.859Z,97030.41
2018-06-29T21:41:59.443Z,97032.73
2018-06-29T21:44:29.016Z,97031.06
2018-06-29T21:46:58.565Z,97031.67
2018-06-29T21:49:28.051Z,97028.22
2018-06-29T21:51:57.843Z,97028.52
2018-06-29T21:54:27.251Z,97029.03
2018-06-29T21:56:56.922Z,97029.34
2018-06-29T21:59:26.513Z,97027.02
2018-06-29T22:01:56.082Z,97030.71
2018-06-29T22:04:25.543Z,97024.37
2018-06-29T22:06:55.169Z,97025.69
2018-06-29T22:09:24.639Z,97036.61
2018-06-29T22:11:54.179Z,97028.02
2018-06-29T22:14:23.681Z,97030.77
2018-06-29T22:16:53.207Z,97025.44
2018-06-29T22:19:22.783Z,97023.95
2018-06-29T22:21:52.258Z,97020.91
2018-06-29T22:24:21.910Z,97023.86
2018-06-29T22:26:51.461Z,97021.20
2018-06-29T22:29:20.988Z,97022.52
2018-06-29T22:31:50.442Z,97021.52
2018-06-29T22:34:19.992Z,97023.34
2018-06-29T22:36:49.539Z,97020.70
2018-06-29T22:39:18.987Z,97019.23
2018-06-29T22:41:48.482Z,97023.49
2018-06-29T22:44:17.963Z,97011.96
2018-06-29T22:46:47.433Z,97016.98
2018-06-29T22:49:16.849Z,97014.27
2018-06-29T22:51:46.595Z,97012.78
2018-06-29T22:54:15.944Z,97014.45
2018-06-29T22:56:45.374Z,97022.38
2018-06-29T22:59:14.740Z,97018.22
2018-06-29T23:01:44.554Z,97019.73
2018-06-29T23:04:17.548Z,97015.57
2018-06-29T23:06:48.922Z,97011.56
2018-06-29T23:09:18.333Z,97013.59
2018-06-29T23:11:48.569Z,97018.16
2018-06-29T23:14:17.961Z,97015.15
2018-06-29T23:16:49.147Z,97011.86
2018-06-29T23:19:18.658Z,97011.19
2018-06-29T23:21:50.230Z,97010.69
2018-06-29T23:24:19.771Z,97007.38
2018-06-29T23:26:49.281Z,97008.80
2018-06-29T23:29:18.822Z,97012.09
2018-06-29T23:31:48.311Z,97006.81
2018-06-29T23:34:17.939Z,97009.74
2018-06-29T23:36:47.373Z,97009.38
2018-06-29T23:39:16.893Z,97003.23
2018-06-29T23:41:46.525Z,97004.40
2018-06-29T23:44:15.987Z,97005.27
2018-06-29T23:46:45.451Z,97006.89
2018-06-29T23:49:14.933Z,96998.77
2018-06-29T23:51:44.580Z,97007.70
2018-06-29T23:54:14.010Z,97008.83
2018-06-29T23:56:43.456Z,97001.56
2018-06-29T23:59:12.898Z,97007.61
